Time;durP1;ratioP1;P1;durP2;ratioP2;P2;SDS_P1;SDS_P2;PMS_P1;PMS_P2;Temp;Humidity;BMP_temperature;BMP_pressure;BME280_temperature;BME280_humidity;BME280_pressure;Samples;Min_cycle;Max_cycle;Signal;HPM_P1;HPM_P2
2021/04/20 00:00:46;;;;;;;430.85;260.42;;;;;;;;;;4992020;28;20024;-85
2021/04/20 00:03:14;;;;;;;431.55;266.90;;;;;;;;;;4990210;28;20717;-84
2021/04/20 00:05:40;;;;;;;430.30;266.17;;;;;;;;;;4992416;28;20121;-84
2021/04/20 00:08:06;;;;;;;436.30;269.52;;;;;;;;;;4982371;28;20662;-84
2021/04/20 00:10:32;;;;;;;429.60;267.23;;;;;;;;;;4993603;28;20026;-85
2021/04/20 00:12:58;;;;;;;424.48;256.13;;;;;;;;;;4994752;28;20667;-83
2021/04/20 00:15:26;;;;;;;426.05;257.10;;;;;;;;;;4983600;28;20027;-84
2021/04/20 00:17:53;;;;;;;433.42;260.73;;;;;;;;;;4977505;28;20030;-84
2021/04/20 00:20:19;;;;;;;429.77;260.25;;;;;;;;;;4982763;28;20033;-84
2021/04/20 00:22:45;;;;;;;426.40;257.08;;;;;;;;;;4980525;28;20022;-84
2021/04/20 00:25:11;;;;;;;428.15;261.23;;;;;;;;;;4982548;28;20125;-85
2021/04/20 00:27:37;;;;;;;430.60;255.82;;;;;;;;;;4990039;28;20026;-85
2021/04/20 00:30:05;;;;;;;436.70;270.02;;;;;;;;;;4984234;28;20381;-83
2021/04/20 00:32:31;;;;;;;429.80;257.02;;;;;;;;;;4981737;28;20054;-85
2021/04/20 00:34:57;;;;;;;436.90;264.90;;;;;;;;;;4987116;28;20473;-84
2021/04/20 00:37:23;;;;;;;442.52;269.40;;;;;;;;;;4978568;28;20030;-85
2021/04/20 00:39:49;;;;;;;431.08;255.25;;;;;;;;;;4996458;28;20117;-85
2021/04/20 00:42:15;;;;;;;434.52;262.73;;;;;;;;;;4987769;28;20506;-84
2021/04/20 00:44:41;;;;;;;426.55;256.60;;;;;;;;;;4983201;28;20045;-84
2021/04/20 00:47:07;;;;;;;427.45;255.93;;;;;;;;;;4980567;28;20100;-85
2021/04/20 00:49:33;;;;;;;423.92;253.05;;;;;;;;;;4995951;28;20441;-82
2021/04/20 00:51:59;;;;;;;437.88;263.80;;;;;;;;;;4976912;28;20023;-84
2021/04/20 00:54:25;;;;;;;433.23;267.48;;;;;;;;;;4991423;28;20394;-84
2021/04/20 00:56:51;;;;;;;431.83;263.13;;;;;;;;;;4988367;28;20500;-85
2021/04/20 00:59:17;;;;;;;432.42;256.67;;;;;;;;;;4996356;28;20022;-84
2021/04/20 01:01:43;;;;;;;434.00;265.40;;;;;;;;;;5007635;28;20076;-85
2021/04/20 01:04:10;;;;;;;436.02;265.20;;;;;;;;;;5012260;28;20026;-84
2021/04/20 01:06:36;;;;;;;428.08;258.65;;;;;;;;;;4996044;28;20021;-84
2021/04/20 01:09:04;;;;;;;433.83;261.33;;;;;;;;;;5005117;28;20033;-85
2021/04/20 01:11:30;;;;;;;437.42;267.48;;;;;;;;;;4981021;28;20026;-84
2021/04/20 01:13:56;;;;;;;430.35;258.13;;;;;;;;;;4976717;28;20027;-84
2021/04/20 01:16:22;;;;;;;440.73;273.38;;;;;;;;;;5001537;28;20026;-83
2021/04/20 01:18:48;;;;;;;429.70;255.70;;;;;;;;;;4985564;28;20027;-83
2021/04/20 01:21:15;;;;;;;440.15;269.33;;;;;;;;;;4992613;28;20509;-82
2021/04/20 01:23:44;;;;;;;439.73;262.42;;;;;;;;;;4987503;28;20030;-83
2021/04/20 01:26:10;;;;;;;440.85;263.02;;;;;;;;;;4992132;28;20034;-82
2021/04/20 01:28:37;;;;;;;434.98;256.65;;;;;;;;;;4980920;28;20490;-82
2021/04/20 01:31:03;;;;;;;433.98;259.48;;;;;;;;;;4985237;28;20030;-81
2021/04/20 01:33:29;;;;;;;431.55;246.50;;;;;;;;;;4985487;28;20038;-83
2021/04/20 01:35:55;;;;;;;438.65;252.50;;;;;;;;;;4993409;28;20430;-83
2021/04/20 01:38:21;;;;;;;438.45;259.27;;;;;;;;;;4988213;28;20106;-83
2021/04/20 01:40:47;;;;;;;428.75;249.80;;;;;;;;;;4993152;28;20030;-82
2021/04/20 01:43:13;;;;;;;427.27;251.80;;;;;;;;;;5005943;28;20101;-83
2021/04/20 01:45:40;;;;;;;424.15;241.10;;;;;;;;;;4999513;28;20054;-83
2021/04/20 01:48:06;;;;;;;427.90;247.20;;;;;;;;;;4987321;28;20041;-83
2021/04/20 01:50:32;;;;;;;425.67;249.57;;;;;;;;;;4983575;28;20042;-83
2021/04/20 01:52:58;;;;;;;424.63;245.00;;;;;;;;;;4993151;28;20109;-83
2021/04/20 01:55:24;;;;;;;428.42;245.93;;;;;;;;;;4992378;28;20105;-83
2021/04/20 01:57:53;;;;;;;434.92;257.30;;;;;;;;;;4993058;28;20375;-83
2021/04/20 02:00:20;;;;;;;433.40;256.13;;;;;;;;;;5008473;28;20030;-82
2021/04/20 02:02:46;;;;;;;427.25;243.32;;;;;;;;;;4976780;28;20026;-82
2021/04/20 02:05:12;;;;;;;426.85;248.95;;;;;;;;;;4978434;28;20029;-83
2021/04/20 02:07:39;;;;;;;432.52;247.10;;;;;;;;;;4990115;28;20076;-83
2021/04/20 02:10:06;;;;;;;441.58;252.57;;;;;;;;;;4975565;28;20467;-83
2021/04/20 02:12:32;;;;;;;432.70;249.73;;;;;;;;;;4981140;28;20022;-83
2021/04/20 02:14:58;;;;;;;436.38;251.80;;;;;;;;;;4988872;28;20045;-83
2021/04/20 02:17:26;;;;;;;436.38;247.27;;;;;;;;;;4988696;28;20038;-83
2021/04/20 02:19:52;;;;;;;443.13;256.20;;;;;;;;;;4976915;28;20037;-83
2021/04/20 02:22:19;;;;;;;443.98;254.52;;;;;;;;;;5003721;28;20030;-83
2021/04/20 02:24:45;;;;;;;438.63;259.95;;;;;;;;;;4981609;28;20058;-84
2021/04/20 02:27:12;;;;;;;437.52;245.77;;;;;;;;;;5001991;28;20057;-82
2021/04/20 02:29:38;;;;;;;430.88;238.48;;;;;;;;;;4987008;28;20050;-83
2021/04/20 02:32:04;;;;;;;437.05;254.85;;;;;;;;;;4979212;28;20034;-83
2021/04/20 02:34:30;;;;;;;432.63;247.95;;;;;;;;;;4976214;28;20117;-82
2021/04/20 02:36:57;;;;;;;441.63;255.35;;;;;;;;;;4980172;28;20101;-83
2021/04/20 02:39:24;;;;;;;439.80;248.23;;;;;;;;;;4988484;28;20040;-84
2021/04/20 02:41:50;;;;;;;441.85;255.98;;;;;;;;;;4994741;28;20022;-82
2021/04/20 02:44:16;;;;;;;432.55;246.80;;;;;;;;;;5006265;28;20043;-81
2021/04/20 02:46:44;;;;;;;442.05;251.85;;;;;;;;;;4988073;28;20058;-82
2021/04/20 02:49:11;;;;;;;442.67;248.98;;;;;;;;;;4992439;28;20033;-83
2021/04/20 02:51:37;;;;;;;443.65;257.05;;;;;;;;;;4984503;28;20110;-84
2021/04/20 02:54:03;;;;;;;446.85;258.08;;;;;;;;;;4989549;28;20018;-83
2021/04/20 02:56:30;;;;;;;442.13;251.30;;;;;;;;;;4998647;28;20613;-82
2021/04/20 02:58:58;;;;;;;444.20;253.27;;;;;;;;;;4992115;28;20521;-83
2021/04/20 03:01:25;;;;;;;439.35;246.98;;;;;;;;;;4996993;28;20558;-82
2021/04/20 03:03:51;;;;;;;445.98;250.27;;;;;;;;;;4995201;28;20478;-83
2021/04/20 03:06:48;;;;;;;442.50;246.98;;;;;;;;;;4993433;28;20026;-82
2021/04/20 03:09:14;;;;;;;443.52;246.95;;;;;;;;;;4990891;28;20848;-83
2021/04/20 03:11:42;;;;;;;435.75;246.73;;;;;;;;;;4997568;28;20026;-82
2021/04/20 03:14:08;;;;;;;428.35;244.98;;;;;;;;;;5015059;28;20030;-83
2021/04/20 03:16:35;;;;;;;423.98;238.95;;;;;;;;;;4995742;28;20022;-82
2021/04/20 03:19:02;;;;;;;429.25;244.02;;;;;;;;;;5008679;28;20037;-83
2021/04/20 03:21:29;;;;;;;437.50;251.98;;;;;;;;;;5019762;28;20497;-83
2021/04/20 03:23:56;;;;;;;436.48;246.77;;;;;;;;;;4997525;28;20161;-81
2021/04/20 03:26:22;;;;;;;432.52;240.40;;;;;;;;;;5014442;28;20529;-82
2021/04/20 03:28:48;;;;;;;424.15;236.70;;;;;;;;;;4978748;28;20113;-83
2021/04/20 03:31:14;;;;;;;430.75;236.30;;;;;;;;;;4988390;28;20077;-84
2021/04/20 03:33:40;;;;;;;440.58;248.70;;;;;;;;;;4994080;28;20042;-83
2021/04/20 03:36:10;;;;;;;439.75;246.38;;;;;;;;;;4986016;28;20058;-82
2021/04/20 03:38:46;;;;;;;443.35;254.10;;;;;;;;;;4995715;28;20057;-83
2021/04/20 03:41:13;;;;;;;430.33;241.32;;;;;;;;;;5000436;28;20038;-83
2021/04/20 03:43:41;;;;;;;442.25;252.43;;;;;;;;;;4984207;28;20054;-83
2021/04/20 03:46:08;;;;;;;446.27;254.20;;;;;;;;;;4988435;28;20026;-83
2021/04/20 03:48:41;;;;;;;433.63;245.80;;;;;;;;;;4991693;28;20128;-83
2021/04/20 03:51:13;;;;;;;433.67;240.15;;;;;;;;;;4996248;28;20026;-83
2021/04/20 03:53:40;;;;;;;436.08;244.65;;;;;;;;;;5006280;28;20036;-83
2021/04/20 03:56:07;;;;;;;437.83;245.93;;;;;;;;;;4990516;28;20145;-83
2021/04/20 03:58:34;;;;;;;437.02;249.27;;;;;;;;;;4982361;28;20845;-83
2021/04/20 04:01:02;;;;;;;435.30;239.75;;;;;;;;;;4987578;28;20041;-83
2021/04/20 04:03:29;;;;;;;439.65;252.70;;;;;;;;;;4983189;28;20034;-83
2021/04/20 04:06:11;;;;;;;432.52;240.50;;;;;;;;;;4989215;28;20022;-83
2021/04/20 04:08:38;;;;;;;431.08;241.57;;;;;;;;;;4995082;28;20030;-83
2021/04/20 04:11:06;;;;;;;433.00;253.15;;;;;;;;;;4981213;28;20062;-83
2021/04/20 04:16:36;;;;;;;431.90;241.65;;;;;;;;;;4996818;28;20614;-83
2021/04/20 04:19:02;;;;;;;426.88;244.18;;;;;;;;;;4992877;28;20046;-82
2021/04/20 04:21:43;;;;;;;434.40;245.25;;;;;;;;;;4988625;28;20393;-82
2021/04/20 04:24:11;;;;;;;421.75;236.60;;;;;;;;;;4989948;28;20022;-83
2021/04/20 04:26:37;;;;;;;424.25;241.98;;;;;;;;;;4981779;28;20030;-83
2021/04/20 04:29:04;;;;;;;437.55;253.75;;;;;;;;;;4987315;28;20117;-83
2021/04/20 04:31:35;;;;;;;432.88;242.88;;;;;;;;;;4996990;28;20053;-83
2021/04/20 04:34:01;;;;;;;434.15;240.95;;;;;;;;;;4993361;28;20022;-83
2021/04/20 04:36:28;;;;;;;428.75;241.35;;;;;;;;;;5002584;28;20029;-84
2021/04/20 04:38:54;;;;;;;428.80;241.57;;;;;;;;;;4981376;28;20073;-82
2021/04/20 04:41:20;;;;;;;426.42;239.98;;;;;;;;;;4986983;28;20133;-82
2021/04/20 04:43:46;;;;;;;433.20;252.27;;;;;;;;;;4987352;28;20030;-83
2021/04/20 04:46:12;;;;;;;430.35;245.55;;;;;;;;;;4977265;28;20398;-83
2021/04/20 04:48:39;;;;;;;431.58;253.63;;;;;;;;;;4986206;28;20048;-82
2021/04/20 04:51:05;;;;;;;431.02;248.13;;;;;;;;;;4988514;28;20064;-83
2021/04/20 04:53:32;;;;;;;434.10;249.02;;;;;;;;;;4996677;28;20049;-83
2021/04/20 04:56:00;;;;;;;432.35;248.63;;;;;;;;;;4989845;28;20066;-83
2021/04/20 04:58:26;;;;;;;431.83;242.02;;;;;;;;;;4983915;28;20112;-83
2021/04/20 05:00:55;;;;;;;424.60;232.75;;;;;;;;;;5008698;28;20033;-83
2021/04/20 05:03:25;;;;;;;420.80;238.65;;;;;;;;;;4980838;28;20038;-84
2021/04/20 05:05:59;;;;;;;422.48;234.63;;;;;;;;;;4982141;28;20466;-84
2021/04/20 05:08:25;;;;;;;420.10;234.15;;;;;;;;;;4982598;28;20486;-83
2021/04/20 05:10:51;;;;;;;423.08;238.75;;;;;;;;;;4977782;28;20042;-84
2021/04/20 05:13:18;;;;;;;432.02;244.63;;;;;;;;;;4987309;28;20394;-82
2021/04/20 05:15:44;;;;;;;425.17;246.20;;;;;;;;;;4982496;28;20126;-82
2021/04/20 05:18:10;;;;;;;425.13;237.25;;;;;;;;;;4984278;28;20515;-83
2021/04/20 05:20:40;;;;;;;435.63;245.80;;;;;;;;;;4982095;28;20042;-83
2021/04/20 05:23:06;;;;;;;440.67;246.93;;;;;;;;;;4977241;28;20033;-83
2021/04/20 05:25:32;;;;;;;438.30;245.27;;;;;;;;;;4998248;28;20100;-84
2021/04/20 05:27:58;;;;;;;438.27;247.25;;;;;;;;;;4993363;28;20029;-84
2021/04/20 05:30:26;;;;;;;442.95;240.68;;;;;;;;;;4987103;28;20027;-84
2021/04/20 05:32:52;;;;;;;446.13;253.07;;;;;;;;;;5003937;28;20019;-84
2021/04/20 05:35:19;;;;;;;457.25;260.15;;;;;;;;;;4984287;28;20030;-84
2021/04/20 05:37:49;;;;;;;460.98;269.70;;;;;;;;;;4984790;28;20430;-84
2021/04/20 05:40:16;;;;;;;449.38;255.32;;;;;;;;;;4983185;28;20069;-83
2021/04/20 05:42:43;;;;;;;447.75;256.17;;;;;;;;;;4985605;28;20033;-84
2021/04/20 05:45:10;;;;;;;451.23;253.32;;;;;;;;;;4996137;28;20046;-84
2021/04/20 05:47:40;;;;;;;447.08;253.13;;;;;;;;;;4986214;28;20065;-85
2021/04/20 05:50:06;;;;;;;443.63;252.40;;;;;;;;;;4976604;28;20037;-84
2021/04/20 05:52:36;;;;;;;450.60;258.23;;;;;;;;;;5009204;28;20022;-83
2021/04/20 05:55:08;;;;;;;450.70;248.95;;;;;;;;;;4998860;28;20486;-84
2021/04/20 05:57:34;;;;;;;447.88;252.98;;;;;;;;;;4989081;28;20108;-85
2021/04/20 06:00:00;;;;;;;457.52;263.15;;;;;;;;;;4976146;28;20128;-84
2021/04/20 06:02:30;;;;;;;451.95;255.73;;;;;;;;;;4986889;28;20034;-84
2021/04/20 06:04:58;;;;;;;446.20;250.53;;;;;;;;;;4992940;28;20032;-84
2021/04/20 06:07:24;;;;;;;450.80;258.05;;;;;;;;;;5012867;28;20289;-85
2021/04/20 06:09:50;;;;;;;451.63;265.70;;;;;;;;;;4977973;28;20030;-84
2021/04/20 06:12:16;;;;;;;452.30;260.70;;;;;;;;;;4992712;28;20030;-85
2021/04/20 06:14:42;;;;;;;457.25;262.83;;;;;;;;;;4987059;28;20052;-84
2021/04/20 06:17:09;;;;;;;451.77;262.00;;;;;;;;;;4990840;28;20064;-82
2021/04/20 06:19:38;;;;;;;458.00;268.52;;;;;;;;;;4979914;28;20718;-81
2021/04/20 06:22:05;;;;;;;461.45;268.67;;;;;;;;;;4994515;28;20022;-84
2021/04/20 06:24:31;;;;;;;457.00;262.90;;;;;;;;;;4987157;28;20029;-82
2021/04/20 06:26:58;;;;;;;459.85;268.65;;;;;;;;;;4980270;28;20026;-82
2021/04/20 06:29:24;;;;;;;458.35;270.45;;;;;;;;;;4998753;28;20021;-82
2021/04/20 06:31:50;;;;;;;457.90;271.95;;;;;;;;;;4980256;28;20049;-82
2021/04/20 06:34:17;;;;;;;464.30;274.50;;;;;;;;;;4979893;28;20030;-81
2021/04/20 06:36:43;;;;;;;459.27;278.25;;;;;;;;;;4978268;28;20023;-81
2021/04/20 06:39:09;;;;;;;471.95;284.13;;;;;;;;;;5011444;28;20025;-82
2021/04/20 06:41:35;;;;;;;480.48;291.73;;;;;;;;;;4997169;28;20121;-82
2021/04/20 06:44:07;;;;;;;488.60;295.00;;;;;;;;;;4985235;28;20044;-83
2021/04/20 06:46:42;;;;;;;480.48;288.55;;;;;;;;;;4982167;28;20096;-83
2021/04/20 06:49:11;;;;;;;493.00;299.23;;;;;;;;;;4980695;28;20040;-83
2021/04/20 06:51:40;;;;;;;490.23;293.92;;;;;;;;;;4996016;28;20033;-83
2021/04/20 06:54:29;;;;;;;495.50;306.02;;;;;;;;;;4996549;28;20030;-82
2021/04/20 06:57:15;;;;;;;496.83;304.95;;;;;;;;;;4985807;28;20042;-83
2021/04/20 07:00:03;;;;;;;503.08;309.85;;;;;;;;;;4996950;28;20025;-82
2021/04/20 07:02:48;;;;;;;500.40;318.00;;;;;;;;;;4985667;28;20023;-82
2021/04/20 07:05:18;;;;;;;494.92;316.42;;;;;;;;;;4994629;28;20413;-82
2021/04/20 07:08:03;;;;;;;501.88;319.05;;;;;;;;;;4991167;28;20486;-82
2021/04/20 07:10:32;;;;;;;494.42;321.30;;;;;;;;;;4993939;28;20022;-82
2021/04/20 07:13:00;;;;;;;500.90;320.55;;;;;;;;;;4988922;28;20426;-82
2021/04/20 07:15:27;;;;;;;508.67;337.80;;;;;;;;;;5009297;28;20509;-82
2021/04/20 07:18:17;;;;;;;505.52;334.17;;;;;;;;;;4985044;28;20038;-83
2021/04/20 07:21:03;;;;;;;502.52;337.20;;;;;;;;;;4998194;28;20045;-82
2021/04/20 07:23:32;;;;;;;504.30;335.98;;;;;;;;;;4996729;28;20026;-81
2021/04/20 07:26:20;;;;;;;507.25;347.67;;;;;;;;;;4998335;28;20625;-81
2021/04/20 07:29:10;;;;;;;504.70;345.77;;;;;;;;;;5015610;28;20092;-83
2021/04/20 07:31:57;;;;;;;509.60;357.93;;;;;;;;;;5000936;28;20033;-82
2021/04/20 07:34:43;;;;;;;504.58;353.90;;;;;;;;;;5009359;28;20269;-82
2021/04/20 07:37:45;;;;;;;496.70;357.63;;;;;;;;;;4986706;28;20097;-82
2021/04/20 07:40:28;;;;;;;493.15;351.50;;;;;;;;;;4954970;29;20203;-82
2021/04/20 07:43:06;;;;;;;496.85;364.38;;;;;;;;;;5006467;28;20080;-82
2021/04/20 07:45:39;;;;;;;501.50;372.75;;;;;;;;;;4998428;28;20085;-82
2021/04/20 07:48:11;;;;;;;517.92;384.10;;;;;;;;;;4999630;28;20034;-79
2021/04/20 07:50:42;;;;;;;510.13;381.55;;;;;;;;;;4999232;28;20084;-82
2021/04/20 07:53:17;;;;;;;508.65;382.42;;;;;;;;;;4994023;28;20031;-83
2021/04/20 07:56:21;;;;;;;499.42;375.08;;;;;;;;;;4992448;28;20443;-83
2021/04/20 07:58:49;;;;;;;500.88;387.92;;;;;;;;;;4989169;28;20033;-81
2021/04/20 08:01:18;;;;;;;502.15;390.95;;;;;;;;;;4983969;28;20394;-82
2021/04/20 08:03:58;;;;;;;501.25;398.13;;;;;;;;;;5005878;28;20084;-82
2021/04/20 08:06:28;;;;;;;499.08;401.70;;;;;;;;;;4990762;28;20026;-81
2021/04/20 08:09:01;;;;;;;497.25;406.98;;;;;;;;;;4996765;28;20129;-83
2021/04/20 08:11:30;;;;;;;494.60;405.42;;;;;;;;;;5002764;28;20825;-85
2021/04/20 08:14:11;;;;;;;494.13;403.25;;;;;;;;;;5004364;28;20072;-85
2021/04/20 08:16:36;;;;;;;;;;;;;;;;;;5013306;28;20029;-82
2021/04/20 08:19:15;;;;;;;500.08;404.85;;;;;;;;;;5016394;28;19912;-82
2021/04/20 08:21:49;;;;;;;499.48;417.83;;;;;;;;;;4997892;28;20367;-82
2021/04/20 08:24:33;;;;;;;501.75;432.42;;;;;;;;;;4993474;28;20030;-81
2021/04/20 08:27:03;;;;;;;502.20;435.95;;;;;;;;;;4996252;28;20057;-83
2021/04/20 08:29:29;;;;;;;501.52;436.80;;;;;;;;;;4997919;28;20037;-81
2021/04/20 08:31:58;;;;;;;502.10;441.17;;;;;;;;;;4997362;28;20036;-76
2021/04/20 08:34:30;;;;;;;507.05;451.00;;;;;;;;;;4995878;28;20040;-80
2021/04/20 08:37:06;;;;;;;501.92;443.23;;;;;;;;;;5012774;28;20026;-82
2021/04/20 08:42:53;;;;;;;500.33;429.65;;;;;;;;;;4995016;28;20101;-78
2021/04/20 08:45:27;;;;;;;499.55;430.55;;;;;;;;;;5000677;28;20611;-81
2021/04/20 08:48:03;;;;;;;500.40;437.30;;;;;;;;;;5011224;28;20038;-77
2021/04/20 08:50:32;;;;;;;504.35;445.52;;;;;;;;;;5013531;28;20021;-78
2021/04/20 08:52:58;;;;;;;521.97;465.02;;;;;;;;;;5014455;28;20072;-79
2021/04/20 08:55:27;;;;;;;544.35;486.42;;;;;;;;;;4993931;28;20433;-78
2021/04/20 08:57:54;;;;;;;555.50;497.63;;;;;;;;;;4983350;28;20101;-78
2021/04/20 09:00:20;;;;;;;572.17;514.40;;;;;;;;;;4995453;28;20037;-78
2021/04/20 09:03:04;;;;;;;602.20;543.28;;;;;;;;;;4994798;28;20030;-82
2021/04/20 09:05:32;;;;;;;612.13;553.30;;;;;;;;;;5007978;28;20140;-79
2021/04/20 09:08:19;;;;;;;611.53;553.22;;;;;;;;;;5014168;28;20461;-88
2021/04/20 09:10:51;;;;;;;605.42;547.33;;;;;;;;;;5002287;28;20105;-78
2021/04/20 09:13:20;;;;;;;617.08;558.42;;;;;;;;;;4998189;28;20473;-79
2021/04/20 09:16:03;;;;;;;623.30;564.88;;;;;;;;;;4977602;28;20379;-81
2021/04/20 09:18:49;;;;;;;633.42;574.78;;;;;;;;;;4992634;28;20117;-77
2021/04/20 09:21:20;;;;;;;651.00;591.60;;;;;;;;;;4993770;28;20084;-77
2021/04/20 09:23:52;;;;;;;657.50;598.63;;;;;;;;;;4995614;28;20030;-77
2021/04/20 09:26:37;;;;;;;669.92;610.92;;;;;;;;;;5009863;28;20026;-77
2021/04/20 09:29:21;;;;;;;668.35;609.55;;;;;;;;;;5013650;28;20034;-79
2021/04/20 09:31:55;;;;;;;673.70;614.42;;;;;;;;;;5004266;28;20351;-78
2021/04/20 09:34:22;;;;;;;663.42;604.95;;;;;;;;;;4999325;28;20030;-78
2021/04/20 09:36:50;;;;;;;676.03;616.50;;;;;;;;;;4990527;28;20065;-78
2021/04/20 09:39:17;;;;;;;673.58;614.53;;;;;;;;;;4989578;28;20026;-78
2021/04/20 09:41:44;;;;;;;678.75;619.47;;;;;;;;;;4990991;28;20026;-77
2021/04/20 09:44:36;;;;;;;693.20;632.95;;;;;;;;;;4990763;28;20065;-78
2021/04/20 09:47:26;;;;;;;716.72;655.50;;;;;;;;;;4992231;28;20033;-77
2021/04/20 09:50:08;;;;;;;717.33;656.50;;;;;;;;;;4989140;28;20038;-77
2021/04/20 09:52:53;;;;;;;722.08;661.35;;;;;;;;;;4985155;28;20474;-77
2021/04/20 09:55:24;;;;;;;712.25;652.80;;;;;;;;;;4990811;28;20057;-77
2021/04/20 09:57:54;;;;;;;727.10;666.78;;;;;;;;;;5005237;28;20026;-80
2021/04/20 10:00:20;;;;;;;703.05;644.38;;;;;;;;;;5008599;28;20026;-79
2021/04/20 10:03:05;;;;;;;704.67;645.72;;;;;;;;;;5000041;28;20057;-82
2021/04/20 10:05:45;;;;;;;706.45;647.00;;;;;;;;;;4982980;28;20037;-78
2021/04/20 10:08:37;;;;;;;741.45;679.17;;;;;;;;;;5006188;28;20064;-77
2021/04/20 10:11:21;;;;;;;687.17;628.78;;;;;;;;;;4994273;28;20022;-82
2021/04/20 10:14:08;;;;;;;688.55;629.42;;;;;;;;;;4989902;28;20500;-81
2021/04/20 10:16:42;;;;;;;678.72;620.30;;;;;;;;;;5006075;28;20021;-78
2021/04/20 10:19:08;;;;;;;691.17;631.95;;;;;;;;;;4976033;28;20465;-78
2021/04/20 10:21:54;;;;;;;698.80;639.35;;;;;;;;;;4999164;28;20037;-83
2021/04/20 10:24:25;;;;;;;683.75;624.85;;;;;;;;;;5006583;28;20084;-77
2021/04/20 10:26:56;;;;;;;661.83;603.53;;;;;;;;;;4988073;28;20445;-77
2021/04/20 10:29:59;;;;;;;659.60;600.35;;;;;;;;;;4987721;28;20030;-78
2021/04/20 10:32:33;;;;;;;608.97;552.17;;;;;;;;;;5008347;28;20474;-77
2021/04/20 10:35:00;;;;;;;591.78;535.85;;;;;;;;;;4985783;28;20818;-77
2021/04/20 10:37:34;;;;;;;593.95;537.13;;;;;;;;;;5010436;28;20121;-77
2021/04/20 10:40:01;;;;;;;591.30;534.08;;;;;;;;;;4976167;28;20023;-78
2021/04/20 10:42:32;;;;;;;573.50;516.83;;;;;;;;;;4993180;28;20462;-76
2021/04/20 10:44:58;;;;;;;;;;;;;;;;;;4981201;28;20045;-77
2021/04/20 10:47:24;;;;;;;547.53;491.02;;;;;;;;;;4993215;28;19932;-77
2021/04/20 10:49:51;;;;;;;549.38;492.35;;;;;;;;;;5011339;28;20030;-77
2021/04/20 10:52:19;;;;;;;555.78;498.63;;;;;;;;;;4996867;28;20134;-76
2021/04/20 10:54:49;;;;;;;550.47;493.77;;;;;;;;;;5013884;28;20026;-78
2021/04/20 10:57:15;;;;;;;535.95;480.33;;;;;;;;;;5014266;28;20014;-77
2021/04/20 10:59:42;;;;;;;541.83;485.17;;;;;;;;;;5022633;28;20060;-78
2021/04/20 11:02:12;;;;;;;537.78;481.45;;;;;;;;;;5013877;28;20030;-76
2021/04/20 11:04:39;;;;;;;525.22;469.70;;;;;;;;;;5004045;28;20755;-77
2021/04/20 11:07:30;;;;;;;524.90;469.23;;;;;;;;;;4985647;28;20373;-77
2021/04/20 11:10:09;;;;;;;522.10;466.65;;;;;;;;;;5004926;28;20455;-77
2021/04/20 11:12:49;;;;;;;524.67;469.52;;;;;;;;;;4996371;28;20022;-77
2021/04/20 11:15:16;;;;;;;522.10;467.30;;;;;;;;;;4991140;28;20038;-77
2021/04/20 11:18:13;;;;;;;512.28;458.58;;;;;;;;;;4999871;28;20064;-78
2021/04/20 11:20:43;;;;;;;511.80;457.10;;;;;;;;;;4981560;28;20034;-78
2021/04/20 11:23:09;;;;;;;510.48;455.58;;;;;;;;;;4984709;28;20054;-78
2021/04/20 11:25:55;;;;;;;512.08;457.00;;;;;;;;;;4981466;28;20387;-78
2021/04/20 11:28:40;;;;;;;514.08;458.80;;;;;;;;;;5000747;28;20707;-77
2021/04/20 11:31:08;;;;;;;513.15;457.85;;;;;;;;;;4988083;28;20030;-78
2021/04/20 11:33:49;;;;;;;518.38;462.48;;;;;;;;;;4997936;28;20113;-77
2021/04/20 11:36:16;;;;;;;499.08;445.55;;;;;;;;;;4996724;28;20054;-77
2021/04/20 11:38:47;;;;;;;500.13;446.08;;;;;;;;;;4997499;28;20050;-77
2021/04/20 11:41:22;;;;;;;497.35;443.30;;;;;;;;;;4997568;28;20057;-77
2021/04/20 11:43:56;;;;;;;491.85;438.50;;;;;;;;;;5007885;28;20062;-77
2021/04/20 11:46:23;;;;;;;494.13;440.10;;;;;;;;;;4997177;28;20563;-77
2021/04/20 11:48:50;;;;;;;491.98;438.65;;;;;;;;;;4997389;28;20046;-77
2021/04/20 11:51:17;;;;;;;502.15;447.98;;;;;;;;;;4997538;28;20026;-77
2021/04/20 11:53:45;;;;;;;501.38;447.65;;;;;;;;;;5009607;28;20582;-78
2021/04/20 11:56:12;;;;;;;504.30;450.38;;;;;;;;;;5012793;28;20030;-78
2021/04/20 11:58:38;;;;;;;507.20;453.00;;;;;;;;;;4990634;28;20406;-78
2021/04/20 12:01:09;;;;;;;517.30;463.08;;;;;;;;;;5007213;28;20026;-77
2021/04/20 12:03:36;;;;;;;534.67;479.98;;;;;;;;;;4988077;28;20030;-77
2021/04/20 12:06:03;;;;;;;540.92;486.50;;;;;;;;;;4984897;28;20042;-78
2021/04/20 12:08:38;;;;;;;535.03;481.40;;;;;;;;;;4988796;28;20117;-77
2021/04/20 12:11:07;;;;;;;527.90;474.40;;;;;;;;;;5007048;28;20175;-78
2021/04/20 12:13:34;;;;;;;524.38;471.23;;;;;;;;;;4988438;28;20481;-78
2021/04/20 12:19:07;;;;;;;513.45;460.63;;;;;;;;;;5006290;28;20028;-77
2021/04/20 12:21:39;;;;;;;514.63;461.27;;;;;;;;;;4986699;28;20026;-77
2021/04/20 12:24:05;;;;;;;510.10;457.15;;;;;;;;;;4982852;28;20037;-77
2021/04/20 12:26:32;;;;;;;502.15;449.25;;;;;;;;;;5004955;28;20073;-78
2021/04/20 12:29:06;;;;;;;495.30;442.73;;;;;;;;;;5005107;28;20410;-78
2021/04/20 12:31:34;;;;;;;504.30;450.25;;;;;;;;;;4999480;28;20022;-77
2021/04/20 12:34:00;;;;;;;504.23;450.60;;;;;;;;;;4987495;28;20033;-78
2021/04/20 12:36:28;;;;;;;492.23;439.55;;;;;;;;;;4985505;28;20471;-77
2021/04/20 12:38:55;;;;;;;488.70;436.38;;;;;;;;;;5001758;28;20455;-78
2021/04/20 12:41:21;;;;;;;486.40;433.95;;;;;;;;;;4990843;28;20033;-77
2021/04/20 12:43:49;;;;;;;493.02;439.95;;;;;;;;;;5013416;28;20061;-78
2021/04/20 12:46:15;;;;;;;486.98;434.42;;;;;;;;;;4983723;28;20479;-79
2021/04/20 12:48:46;;;;;;;482.13;429.67;;;;;;;;;;4989314;28;20033;-78
2021/04/20 12:51:16;;;;;;;482.23;429.33;;;;;;;;;;4990318;28;20022;-78
2021/04/20 12:53:46;;;;;;;477.35;424.95;;;;;;;;;;4993867;28;20083;-78
2021/04/20 12:56:19;;;;;;;474.00;422.27;;;;;;;;;;4980260;28;20025;-78
2021/04/20 12:58:45;;;;;;;473.65;421.63;;;;;;;;;;5011095;28;20120;-77
2021/04/20 13:01:11;;;;;;;480.67;427.10;;;;;;;;;;4994133;28;20513;-78
2021/04/20 13:03:38;;;;;;;477.08;424.50;;;;;;;;;;5003321;28;20030;-77
2021/04/20 13:06:10;;;;;;;478.15;425.70;;;;;;;;;;4985260;28;20113;-78
2021/04/20 13:08:48;;;;;;;476.45;424.10;;;;;;;;;;4979836;28;20113;-78
2021/04/20 13:11:31;;;;;;;466.90;415.77;;;;;;;;;;4983552;28;20041;-77
2021/04/20 13:14:17;;;;;;;477.98;425.65;;;;;;;;;;4983493;28;20360;-79
2021/04/20 13:16:44;;;;;;;482.17;429.13;;;;;;;;;;4992951;28;20026;-78
2021/04/20 13:19:11;;;;;;;476.08;423.85;;;;;;;;;;5013546;28;20045;-79
2021/04/20 13:21:41;;;;;;;470.45;418.63;;;;;;;;;;5000470;28;20182;-82
2021/04/20 13:24:12;;;;;;;459.05;408.25;;;;;;;;;;5002286;28;20083;-75
2021/04/20 13:26:39;;;;;;;458.13;406.10;;;;;;;;;;4989513;28;20030;-79
2021/04/20 13:29:07;;;;;;;464.65;413.58;;;;;;;;;;5005404;28;20038;-78
2021/04/20 13:31:35;;;;;;;473.48;421.67;;;;;;;;;;4985300;28;20026;-79
2021/04/20 13:34:03;;;;;;;479.58;427.52;;;;;;;;;;4993210;28;20023;-78
2021/04/20 13:36:42;;;;;;;483.08;431.35;;;;;;;;;;4986973;28;20497;-80
2021/04/20 13:39:10;;;;;;;482.15;430.77;;;;;;;;;;4984346;28;20173;-78
2021/04/20 13:41:45;;;;;;;484.10;432.45;;;;;;;;;;4994658;28;20049;-79
2021/04/20 13:44:12;;;;;;;477.08;425.90;;;;;;;;;;4985410;28;20041;-78
2021/04/20 13:46:46;;;;;;;474.42;423.17;;;;;;;;;;4997945;28;20026;-78
2021/04/20 13:49:13;;;;;;;468.75;418.30;;;;;;;;;;4999918;28;20032;-77
2021/04/20 13:51:42;;;;;;;469.02;417.80;;;;;;;;;;4980243;28;20022;-79
2021/04/20 13:54:09;;;;;;;467.40;416.50;;;;;;;;;;5000259;28;20033;-79
2021/04/20 13:56:38;;;;;;;464.35;414.00;;;;;;;;;;4994409;28;20034;-77
2021/04/20 13:59:15;;;;;;;467.48;416.33;;;;;;;;;;4992250;28;20022;-77
2021/04/20 14:01:42;;;;;;;462.67;411.80;;;;;;;;;;5001747;28;20486;-78
2021/04/20 14:04:12;;;;;;;469.75;416.45;;;;;;;;;;5003737;28;20038;-81
2021/04/20 14:06:49;;;;;;;514.03;441.30;;;;;;;;;;4991024;28;20049;-78
2021/04/20 14:09:25;;;;;;;512.22;442.00;;;;;;;;;;5001215;28;20068;-79
2021/04/20 14:11:52;;;;;;;508.52;436.25;;;;;;;;;;5013165;28;20466;-77
2021/04/20 14:14:25;;;;;;;477.45;412.83;;;;;;;;;;4994661;28;20109;-78
2021/04/20 14:16:52;;;;;;;486.15;415.20;;;;;;;;;;4991484;28;20026;-77
2021/04/20 14:19:23;;;;;;;490.92;424.90;;;;;;;;;;4993162;28;20025;-78
2021/04/20 14:21:50;;;;;;;503.38;438.73;;;;;;;;;;4986715;28;20049;-77